createdAt,value
2016-10-08T00:00:03.738Z,89.57
2016-10-08T00:00:18.151Z,89.47
2016-10-08T00:00:32.952Z,89.95
2016-10-08T00:00:47.420Z,89.66
2016-10-08T00:01:01.948Z,90.23
2016-10-08T00:01:16.512Z,90.43
2016-10-08T00:01:31.034Z,90.14
2016-10-08T00:01:45.493Z,90.23
2016-10-08T00:01:59.969Z,89.86
2016-10-08T00:02:14.655Z,89.95
2016-10-08T00:02:29.123Z,89.76
2016-10-08T00:02:43.734Z,89.86
2016-10-08T00:02:58.223Z,89.76
2016-10-08T00:03:12.706Z,89.76
2016-10-08T00:03:27.070Z,89.76
2016-10-08T00:03:41.478Z,89.95
2016-10-08T00:03:55.867Z,89.86
2016-10-08T00:04:10.392Z,90.05
2016-10-08T00:04:24.756Z,90.05
2016-10-08T00:04:39.130Z,90.05
2016-10-08T00:04:53.501Z,89.86
2016-10-08T00:05:07.973Z,90.23
2016-10-08T00:05:22.462Z,90.23
2016-10-08T00:05:36.928Z,89.95
2016-10-08T00:05:51.314Z,90.23
2016-10-08T00:06:05.944Z,90.23
2016-10-08T00:06:20.374Z,90.23
2016-10-08T00:06:34.869Z,90.14
2016-10-08T00:06:49.329Z,90.14
2016-10-08T00:07:03.780Z,90.14
2016-10-08T00:07:18.261Z,90.14
2016-10-08T00:07:32.670Z,90.14
2016-10-08T00:07:47.200Z,90.14
2016-10-08T00:08:01.701Z,90.23
2016-10-08T00:08:16.131Z,90.05
2016-10-08T00:08:30.511Z,90.33
2016-10-08T00:08:44.991Z,90.14
2016-10-08T00:08:59.965Z,90.23
2016-10-08T00:09:14.543Z,90.33
2016-10-08T00:09:29.113Z,90.23
2016-10-08T00:09:43.787Z,89.86
2016-10-08T00:09:58.642Z,89.57
2016-10-08T00:10:13.232Z,89.57
2016-10-08T00:10:27.922Z,89.57
2016-10-08T00:10:42.442Z,89.76
2016-10-08T00:10:56.918Z,89.66
2016-10-08T00:11:11.456Z,90.05
2016-10-08T00:11:25.886Z,89.47
2016-10-08T00:11:40.341Z,89.57
2016-10-08T00:11:54.839Z,89.66
2016-10-08T00:12:09.215Z,90.05
2016-10-08T00:12:23.755Z,89.66
2016-10-08T00:12:38.544Z,89.57
2016-10-08T00:12:53.059Z,89.66
2016-10-08T00:13:07.475Z,89.76
2016-10-08T00:13:21.898Z,89.8
2016-10-08T00:13:36.459Z,89.76
2016-10-08T00:13:50.932Z,89.76
2016-10-08T00:14:05.456Z,89.95
2016-10-08T00:14:19.915Z,89.76
2016-10-08T00:14:34.439Z,89.76
2016-10-08T00:14:48.893Z,89.86
2016-10-08T00:15:03.300Z,89.57
2016-10-08T00:15:17.743Z,89.95
2016-10-08T00:15:32.108Z,89.66
2016-10-08T00:15:46.459Z,89.76
2016-10-08T00:16:00.988Z,89.66
2016-10-08T00:16:15.473Z,89.95
2016-10-08T00:16:30.222Z,89.76
2016-10-08T00:16:44.839Z,89.57
2016-10-08T00:16:59.272Z,89.57
2016-10-08T00:17:13.981Z,89.95
2016-10-08T00:17:28.413Z,90.05
2016-10-08T00:17:43.039Z,90.14
2016-10-08T00:17:57.738Z,90.23
2016-10-08T00:18:12.529Z,90.23
2016-10-08T00:18:27.160Z,90.23
2016-10-08T00:18:41.665Z,90.23
2016-10-08T00:18:56.475Z,90.23
2016-10-08T00:19:10.992Z,90.23
2016-10-08T00:19:25.528Z,90.05
2016-10-08T00:19:40.034Z,90.14
2016-10-08T00:19:54.491Z,90.23
2016-10-08T00:20:08.977Z,90.23
2016-10-08T00:20:23.473Z,90.23
2016-10-08T00:20:37.885Z,90.23
2016-10-08T00:20:52.461Z,90.05
2016-10-08T00:21:06.985Z,90.33
2016-10-08T00:21:21.528Z,90.62
2016-10-08T00:21:36.421Z,90.23
2016-10-08T00:21:50.843Z,90.33
2016-10-08T00:22:05.338Z,90.62
2016-10-08T00:22:19.938Z,90.53
2016-10-08T00:22:34.394Z,90.72
2016-10-08T00:22:48.831Z,90.72
2016-10-08T00:23:03.509Z,90.53
2016-10-08T00:23:18.194Z,90.53
2016-10-08T00:23:32.770Z,90.62
2016-10-08T00:23:47.304Z,90.62
2016-10-08T00:24:02.258Z,90.62
2016-10-08T00:24:16.862Z,90.43
2016-10-08T00:24:31.481Z,90.43
2016-10-08T00:24:45.969Z,90.43
2016-10-08T00:25:00.577Z,90.53
2016-10-08T00:25:15.277Z,90.53
2016-10-08T00:25:29.794Z,90.72
2016-10-08T00:25:44.252Z,90.43
2016-10-08T00:25:58.839Z,90.43
2016-10-08T00:26:13.370Z,90.43
2016-10-08T00:26:27.960Z,90.53
2016-10-08T00:26:42.625Z,90.91
2016-10-08T00:26:57.448Z,90.72
2016-10-08T00:27:11.945Z,90.72
2016-10-08T00:27:26.600Z,90.72
2016-10-08T00:27:41.149Z,90.81
2016-10-08T00:27:55.633Z,90.53
2016-10-08T00:28:10.199Z,90.57
2016-10-08T00:28:24.701Z,90.72
2016-10-08T00:28:39.149Z,90.62
2016-10-08T00:28:53.622Z,90.43
2016-10-08T00:29:08.240Z,90.43
2016-10-08T00:29:22.663Z,90.23
2016-10-08T00:29:37.547Z,90.72
2016-10-08T00:29:52.158Z,90.72
2016-10-08T00:30:06.640Z,90.33
2016-10-08T00:30:21.257Z,90.62
2016-10-08T00:30:35.865Z,90.43
2016-10-08T00:30:50.554Z,90.23
2016-10-08T00:31:05.338Z,90.62
2016-10-08T00:31:19.857Z,90.53
2016-10-08T00:31:34.582Z,90.62
2016-10-08T00:31:49.309Z,90.43
2016-10-08T00:32:03.768Z,90.33
2016-10-08T00:32:18.288Z,90.53
2016-10-08T00:32:33.006Z,90.53
2016-10-08T00:32:47.742Z,91.1
2016-10-08T00:33:02.368Z,90.53
2016-10-08T00:33:16.757Z,90.43
2016-10-08T00:33:31.176Z,90.53
2016-10-08T00:33:45.728Z,90.53
2016-10-08T00:34:00.285Z,90.72
2016-10-08T00:34:14.762Z,90.53
2016-10-08T00:34:29.219Z,90.53
2016-10-08T00:34:43.684Z,90.23
2016-10-08T00:34:58.591Z,90.28
2016-10-08T00:35:13.020Z,90.57
2016-10-08T00:35:27.581Z,90.67
2016-10-08T00:35:42.024Z,90.62
2016-10-08T00:35:56.402Z,90.23
2016-10-08T00:36:10.807Z,90.53
2016-10-08T00:36:25.455Z,90.62
2016-10-08T00:36:40.032Z,90.38
2016-10-08T00:36:54.806Z,90.67
2016-10-08T00:37:09.578Z,90.33
2016-10-08T00:37:24.161Z,90.43
2016-10-08T00:37:38.682Z,90.53
2016-10-08T00:37:53.407Z,90.53
2016-10-08T00:38:07.876Z,90.53
2016-10-08T00:38:22.665Z,90.72
2016-10-08T00:38:37.476Z,90.43
2016-10-08T00:38:52.089Z,90.43
2016-10-08T00:39:06.754Z,90.81
2016-10-08T00:39:21.623Z,90.91
2016-10-08T00:39:36.304Z,90.81
2016-10-08T00:39:50.797Z,90.72
2016-10-08T00:40:05.213Z,90.62
2016-10-08T00:40:19.753Z,90.53
2016-10-08T00:40:34.397Z,90.23
2016-10-08T00:40:49.085Z,90.43
2016-10-08T00:41:03.633Z,91.14
2016-10-08T00:41:18.448Z,91
2016-10-08T00:41:32.936Z,90.81
2016-10-08T00:41:47.539Z,91.39
2016-10-08T00:42:02.072Z,91.1
2016-10-08T00:42:16.850Z,91.58
2016-10-08T00:42:31.403Z,91.1
2016-10-08T00:42:45.937Z,91.29
2016-10-08T00:43:00.439Z,91.77
2016-10-08T00:43:15.052Z,91.77
2016-10-08T00:43:29.650Z,92.15
2016-10-08T00:43:44.186Z,92.15
2016-10-08T00:43:58.979Z,92.25
2016-10-08T00:44:13.674Z,92.25
2016-10-08T00:44:28.304Z,92.25
2016-10-08T00:44:42.902Z,92.35
2016-10-08T00:44:57.484Z,91.96
2016-10-08T00:45:11.942Z,91.96
2016-10-08T00:45:26.461Z,92.06
2016-10-08T00:45:41.090Z,92.06
2016-10-08T00:45:55.797Z,92.25
2016-10-08T00:46:10.529Z,92.63
2016-10-08T00:46:25.242Z,92.73
2016-10-08T00:46:39.766Z,92.73
2016-10-08T00:46:54.419Z,92.92
2016-10-08T00:47:08.987Z,93.11
2016-10-08T00:47:23.702Z,93.49
2016-10-08T00:47:38.269Z,93.49
2016-10-08T00:47:53.005Z,93.49
2016-10-08T00:48:07.687Z,93.49
2016-10-08T00:48:22.277Z,93.49
2016-10-08T00:48:36.885Z,93.69
2016-10-08T00:48:51.456Z,93.49
2016-10-08T00:49:06.201Z,93.78
2016-10-08T00:49:20.672Z,93.78
2016-10-08T00:49:35.255Z,93.59
2016-10-08T00:49:50.025Z,93.78
2016-10-08T00:50:04.589Z,93.69
2016-10-08T00:50:19.359Z,94.07
2016-10-08T00:50:34.305Z,94.07
2016-10-08T00:50:49.157Z,93.78
2016-10-08T00:51:03.760Z,93.98
2016-10-08T00:51:18.715Z,93.69
2016-10-08T00:51:33.632Z,94.55
2016-10-08T00:51:48.246Z,94.26
2016-10-08T00:52:02.927Z,94.35
2016-10-08T00:52:17.486Z,94.26
2016-10-08T00:52:32.464Z,94.35
2016-10-08T00:52:47.111Z,94.45
2016-10-08T00:53:01.874Z,94.45
2016-10-08T00:53:16.474Z,94.26
2016-10-08T00:53:31.061Z,94.45
2016-10-08T00:53:45.474Z,94.45
2016-10-08T00:54:00.129Z,94.45
2016-10-08T00:54:14.682Z,94.35
2016-10-08T00:54:29.810Z,94.45
2016-10-08T00:54:44.451Z,94.55
2016-10-08T00:54:58.979Z,94.45
2016-10-08T00:55:13.507Z,94.26
2016-10-08T00:55:28.055Z,94.17
2016-10-08T00:55:42.602Z,94.55
2016-10-08T00:55:57.443Z,94.64
2016-10-08T00:56:12.062Z,94.93
2016-10-08T00:56:26.580Z,94.93
2016-10-08T00:56:41.135Z,94.74
2016-10-08T00:56:55.852Z,94.74
2016-10-08T00:57:10.404Z,94.55
2016-10-08T00:57:24.981Z,94.45
2016-10-08T00:57:39.530Z,94.45
2016-10-08T00:57:54.117Z,94.64
2016-10-08T00:58:08.539Z,94.07
2016-10-08T00:58:23.171Z,94.84
2016-10-08T00:58:37.715Z,94.64
2016-10-08T00:58:52.192Z,94.64
2016-10-08T00:59:06.713Z,94.45
2016-10-08T00:59:21.226Z,94.35
2016-10-08T00:59:35.767Z,94.74
2016-10-08T00:59:50.358Z,94.93
2016-10-08T01:00:04.979Z,95.03
2016-10-08T01:00:19.821Z,94.93
2016-10-08T01:00:34.415Z,94.84
2016-10-08T01:00:48.914Z,94.84
2016-10-08T01:01:03.393Z,94.45
2016-10-08T01:01:18.025Z,94.55
2016-10-08T01:01:32.689Z,94.55
2016-10-08T01:01:47.264Z,94.84
2016-10-08T01:02:01.607Z,94.74
2016-10-08T01:02:16.122Z,94.93
2016-10-08T01:02:30.607Z,94.64
2016-10-08T01:02:45.134Z,94.93
2016-10-08T01:02:59.674Z,94.35
2016-10-08T01:03:14.207Z,94.64
2016-10-08T01:03:29.108Z,94.55
2016-10-08T01:03:43.528Z,94.55
2016-10-08T01:03:58.065Z,94.64
2016-10-08T01:04:12.788Z,94.55
2016-10-08T01:04:27.327Z,94.93
2016-10-08T01:04:41.862Z,94.45
2016-10-08T01:04:56.297Z,94.64
2016-10-08T01:05:10.824Z,94.26
2016-10-08T01:05:25.381Z,94.26
2016-10-08T01:05:39.814Z,94.55
2016-10-08T01:05:54.360Z,94.45
2016-10-08T01:06:09.029Z,94.26
2016-10-08T01:06:23.516Z,94.45
2016-10-08T01:06:38.164Z,94.55
2016-10-08T01:06:53.106Z,94.55
2016-10-08T01:07:07.784Z,94.26
2016-10-08T01:07:22.493Z,94.45
2016-10-08T01:07:36.930Z,94.55
2016-10-08T01:07:51.652Z,94.26
2016-10-08T01:08:06.165Z,94.55
2016-10-08T01:08:20.963Z,94.26
2016-10-08T01:08:35.686Z,94.45
2016-10-08T01:08:50.363Z,94.26
2016-10-08T01:09:04.911Z,94.45
2016-10-08T01:09:19.731Z,94.35
2016-10-08T01:09:34.541Z,94.35
2016-10-08T01:09:49.132Z,94.45
2016-10-08T01:10:03.859Z,94.45
2016-10-08T01:10:18.449Z,94.45
2016-10-08T01:10:33.302Z,94.45
2016-10-08T01:10:47.816Z,94.35
2016-10-08T01:11:02.456Z,94.35
2016-10-08T01:11:17.070Z,94.35
2016-10-08T01:11:31.472Z,94.35
2016-10-08T01:11:45.883Z,94.26
2016-10-08T01:12:00.321Z,94.64
2016-10-08T01:12:14.999Z,94.45
2016-10-08T01:12:29.480Z,94.26
2016-10-08T01:12:43.985Z,94.17
2016-10-08T01:12:58.553Z,94.74
2016-10-08T01:13:12.940Z,94.07
2016-10-08T01:13:27.488Z,94.07
2016-10-08T01:13:42.014Z,93.98
2016-10-08T01:13:56.536Z,94.07
2016-10-08T01:14:11.099Z,94.55
2016-10-08T01:14:25.572Z,94.64
2016-10-08T01:14:40.106Z,94.55
2016-10-08T01:14:54.633Z,94.35
2016-10-08T01:15:09.312Z,94.64
2016-10-08T01:15:23.943Z,94.84
2016-10-08T01:15:38.610Z,95.12
2016-10-08T01:15:53.260Z,94.93
2016-10-08T01:16:07.906Z,94.64
2016-10-08T01:16:22.407Z,94.64
2016-10-08T01:16:36.872Z,94.55
2016-10-08T01:16:51.360Z,94.35
2016-10-08T01:17:05.949Z,94.64
2016-10-08T01:17:20.539Z,94.84
2016-10-08T01:17:35.097Z,94.74
2016-10-08T01:17:49.690Z,94.31
2016-10-08T01:18:04.179Z,94.45
2016-10-08T01:18:18.775Z,94.45
2016-10-08T01:18:33.283Z,93.69
2016-10-08T01:18:47.894Z,93.88
2016-10-08T01:19:02.429Z,93.98
2016-10-08T01:19:16.978Z,93.88
2016-10-08T01:19:31.617Z,93.78
2016-10-08T01:19:46.167Z,93.98
2016-10-08T01:20:00.523Z,93.78
2016-10-08T01:20:14.956Z,93.88
2016-10-08T01:20:29.603Z,93.78
2016-10-08T01:20:44.142Z,93.69
2016-10-08T01:20:58.828Z,94.45
2016-10-08T01:21:13.260Z,93.88
2016-10-08T01:21:27.796Z,93.88
2016-10-08T01:21:42.266Z,93.69
2016-10-08T01:21:56.880Z,93.69
2016-10-08T01:22:11.369Z,93.88
2016-10-08T01:22:26.004Z,93.88
2016-10-08T01:22:40.422Z,93.78
2016-10-08T01:22:55.020Z,93.78
2016-10-08T01:23:09.547Z,93.78
2016-10-08T01:23:23.958Z,93.88
2016-10-08T01:23:38.792Z,94.07
2016-10-08T01:23:53.422Z,93.69
2016-10-08T01:24:08.010Z,94.07
2016-10-08T01:24:22.504Z,94.17
2016-10-08T01:24:37.405Z,93.98
2016-10-08T01:24:52.031Z,93.69
2016-10-08T01:25:06.579Z,94.45
2016-10-08T01:25:20.921Z,94.26
2016-10-08T01:25:35.345Z,94.26
2016-10-08T01:25:49.858Z,94.45
2016-10-08T01:26:04.406Z,94.55
2016-10-08T01:26:18.819Z,94.64
2016-10-08T01:26:33.199Z,94.35
2016-10-08T01:26:47.868Z,94.55
2016-10-08T01:27:02.653Z,94.35
2016-10-08T01:27:17.268Z,94.26
2016-10-08T01:27:31.780Z,94.45
2016-10-08T01:27:46.218Z,94.45
2016-10-08T01:28:00.798Z,94.35
2016-10-08T01:28:15.291Z,94.45
2016-10-08T01:28:29.894Z,94.84
2016-10-08T01:28:44.418Z,94.64
2016-10-08T01:28:59.147Z,94.93
2016-10-08T01:29:13.585Z,94.84
2016-10-08T01:29:28.369Z,94.74
2016-10-08T01:29:42.830Z,94.35
2016-10-08T01:29:57.243Z,94.35
2016-10-08T01:30:11.658Z,94.35
2016-10-08T01:30:26.133Z,94.45
2016-10-08T01:30:40.636Z,94.55
2016-10-08T01:30:55.053Z,94.55
2016-10-08T01:31:09.437Z,94.74
2016-10-08T01:31:23.828Z,94.55
2016-10-08T01:31:38.344Z,94.55
2016-10-08T01:31:52.800Z,94.55
2016-10-08T01:32:07.311Z,94.64
2016-10-08T01:32:21.753Z,94.55
2016-10-08T01:32:36.258Z,94.64
2016-10-08T01:32:50.764Z,94.64
2016-10-08T01:33:05.250Z,94.84
2016-10-08T01:33:19.721Z,94.64
2016-10-08T01:33:34.167Z,94.64
2016-10-08T01:33:48.665Z,94.55
2016-10-08T01:34:03.220Z,94.84
2016-10-08T01:34:17.699Z,95.03
2016-10-08T01:34:32.165Z,94.93
2016-10-08T01:34:46.619Z,95.03
2016-10-08T01:35:01.058Z,94.93
2016-10-08T01:35:15.548Z,94.93
2016-10-08T01:35:29.970Z,94.45
2016-10-08T01:35:44.350Z,94.79
2016-10-08T01:35:58.784Z,94.84
2016-10-08T01:36:13.382Z,94.84
2016-10-08T01:36:27.852Z,94.74
2016-10-08T01:36:42.455Z,94.64
2016-10-08T01:36:56.902Z,95.03
2016-10-08T01:37:11.356Z,94.84
2016-10-08T01:37:25.802Z,94.74
2016-10-08T01:37:40.307Z,94.45
2016-10-08T01:37:54.804Z,94.45
2016-10-08T01:38:09.248Z,94.45
2016-10-08T01:38:23.745Z,94.84
2016-10-08T01:38:38.374Z,94.84
2016-10-08T01:38:52.860Z,94.84
2016-10-08T01:39:07.271Z,94.45
2016-10-08T01:39:21.655Z,94.35
2016-10-08T01:39:36.108Z,94.55
2016-10-08T01:39:50.820Z,94.55
2016-10-08T01:40:05.259Z,94.55
2016-10-08T01:40:19.659Z,94.17
2016-10-08T01:40:34.079Z,94.35
2016-10-08T01:40:48.560Z,94.64
2016-10-08T01:41:02.964Z,94.84
2016-10-08T01:41:17.423Z,94.93
2016-10-08T01:41:31.828Z,94.74
2016-10-08T01:41:46.372Z,94.45
2016-10-08T01:42:00.874Z,94.74
2016-10-08T01:42:15.354Z,94.64
2016-10-08T01:42:29.820Z,94.45
2016-10-08T01:42:44.253Z,94.84
2016-10-08T01:42:58.657Z,94.35
2016-10-08T01:43:13.163Z,94.35
2016-10-08T01:43:27.617Z,94.55
2016-10-08T01:43:42.014Z,94.64
2016-10-08T01:43:56.396Z,94.45
2016-10-08T01:44:10.783Z,94.55
2016-10-08T01:44:25.236Z,94.64
2016-10-08T01:44:39.662Z,94.55
2016-10-08T01:44:54.125Z,94.45
2016-10-08T01:45:08.699Z,94.45
2016-10-08T01:45:23.121Z,94.64
2016-10-08T01:45:37.541Z,94.26
2016-10-08T01:45:51.860Z,94.17
2016-10-08T01:46:06.287Z,94.45
2016-10-08T01:46:20.758Z,94.64
2016-10-08T01:46:35.223Z,94.45
2016-10-08T01:46:49.797Z,94.07
2016-10-08T01:47:04.269Z,94.35
2016-10-08T01:47:18.718Z,94.35
2016-10-08T01:47:33.121Z,94.35
2016-10-08T01:47:47.567Z,94.45
2016-10-08T01:48:01.948Z,93.98
2016-10-08T01:48:16.363Z,94.26
2016-10-08T01:48:30.783Z,94.35
2016-10-08T01:48:45.179Z,94.55
2016-10-08T01:48:59.576Z,94.35
2016-10-08T01:49:13.952Z,94.26
2016-10-08T01:49:28.436Z,94.17
2016-10-08T01:49:42.915Z,94.35
2016-10-08T01:49:57.376Z,94.26
2016-10-08T01:50:11.809Z,94.45
2016-10-08T01:50:26.247Z,94.26
2016-10-08T01:50:40.709Z,94.45
2016-10-08T01:50:55.171Z,94.26
2016-10-08T01:51:09.704Z,94.45
2016-10-08T01:51:24.147Z,94.45
2016-10-08T01:51:38.536Z,94.35
2016-10-08T01:51:52.970Z,94.45
2016-10-08T01:52:07.386Z,94.45
2016-10-08T01:52:21.702Z,94.45
2016-10-08T01:52:36.172Z,94.35
2016-10-08T01:52:50.681Z,94.35
2016-10-08T01:53:05.132Z,94.35
2016-10-08T01:53:19.540Z,94.45
2016-10-08T01:53:34.073Z,94.35
2016-10-08T01:53:48.472Z,94.45
2016-10-08T01:54:02.812Z,94.55
2016-10-08T01:54:17.312Z,94.35
2016-10-08T01:54:31.770Z,94.45
2016-10-08T01:54:46.224Z,94.55
2016-10-08T01:55:00.925Z,93.59
2016-10-08T01:55:15.349Z,94.35
2016-10-08T01:55:29.827Z,93.78
2016-10-08T01:55:44.236Z,94.55
2016-10-08T01:55:58.682Z,93.98
2016-10-08T01:56:13.135Z,93.98
2016-10-08T01:56:27.575Z,93.78
2016-10-08T01:56:41.990Z,93.98
2016-10-08T01:56:56.336Z,94.26
2016-10-08T01:57:10.707Z,93.88
2016-10-08T01:57:25.109Z,93.78
2016-10-08T01:57:39.465Z,93.78
2016-10-08T01:57:53.850Z,94.17
2016-10-08T01:58:08.227Z,93.98
2016-10-08T01:58:22.674Z,93.78
2016-10-08T01:58:37.139Z,93.69
2016-10-08T01:58:51.568Z,93.78
2016-10-08T01:59:05.902Z,93.69
2016-10-08T01:59:20.248Z,93.59
2016-10-08T01:59:34.637Z,93.69
2016-10-08T01:59:49.004Z,93.98
2016-10-08T02:00:03.457Z,93.69
2016-10-08T02:00:17.874Z,93.98
2016-10-08T02:00:32.233Z,93.59
2016-10-08T02:00:46.655Z,93.78
2016-10-08T02:01:01.055Z,93.98
2016-10-08T02:01:15.516Z,93.78
2016-10-08T02:01:29.850Z,93.88
2016-10-08T02:01:44.187Z,93.88
2016-10-08T02:01:58.598Z,93.78
2016-10-08T02:02:12.996Z,93.88
2016-10-08T02:02:27.367Z,93.78
2016-10-08T02:02:41.728Z,93.88
2016-10-08T02:02:56.161Z,93.88
2016-10-08T02:03:10.595Z,93.69
2016-10-08T02:03:25.018Z,93.69
2016-10-08T02:03:39.411Z,93.4
2016-10-08T02:03:53.835Z,93.78
2016-10-08T02:04:08.183Z,93.49
2016-10-08T02:04:22.563Z,93.69
2016-10-08T02:04:36.966Z,93.3
2016-10-08T02:04:51.409Z,93.69
2016-10-08T02:05:05.831Z,93.59
2016-10-08T02:05:20.279Z,93.49
2016-10-08T02:05:34.692Z,93.4
2016-10-08T02:05:49.114Z,93.21
2016-10-08T02:06:03.476Z,93.02
2016-10-08T02:06:17.907Z,93.21
2016-10-08T02:06:32.373Z,93.4
2016-10-08T02:06:46.729Z,93.49
2016-10-08T02:07:01.131Z,93.4
2016-10-08T02:07:15.528Z,93.3
2016-10-08T02:07:29.992Z,93.4
2016-10-08T02:07:44.433Z,93.4
2016-10-08T02:07:58.828Z,93.98
2016-10-08T02:08:13.258Z,93.98
2016-10-08T02:08:27.596Z,93.78
2016-10-08T02:08:42.028Z,93.88
2016-10-08T02:08:56.392Z,93.78
2016-10-08T02:09:10.787Z,93.3
2016-10-08T02:09:25.205Z,93.4
2016-10-08T02:09:39.534Z,93.88
2016-10-08T02:09:53.926Z,93.4
2016-10-08T02:10:08.651Z,93.4
2016-10-08T02:10:23.133Z,93.3
2016-10-08T02:10:37.552Z,93.4
2016-10-08T02:10:51.941Z,93.4
2016-10-08T02:11:06.352Z,93.21
2016-10-08T02:11:20.688Z,92.82
2016-10-08T02:11:35.075Z,92.82
2016-10-08T02:11:49.497Z,92.49
2016-10-08T02:12:03.863Z,92.92
2016-10-08T02:12:18.326Z,92.44
2016-10-08T02:12:32.723Z,92.82
2016-10-08T02:12:47.190Z,92.92
2016-10-08T02:13:01.545Z,93.02
2016-10-08T02:13:15.989Z,93.02
2016-10-08T02:13:30.481Z,93.02
2016-10-08T02:13:44.900Z,93.02
2016-10-08T02:13:59.282Z,92.44
2016-10-08T02:14:13.611Z,93.02
2016-10-08T02:14:28.024Z,92.25
2016-10-08T02:14:42.441Z,92.54
2016-10-08T02:14:56.889Z,92.35
2016-10-08T02:15:11.288Z,92.15
2016-10-08T02:15:25.667Z,92.15
2016-10-08T02:15:40.066Z,91.58
2016-10-08T02:15:54.467Z,91.86
2016-10-08T02:16:08.874Z,92.25
2016-10-08T02:16:23.319Z,91.77
2016-10-08T02:16:37.642Z,91.86
2016-10-08T02:16:52.074Z,91.77
2016-10-08T02:17:06.514Z,91.86
2016-10-08T02:17:20.952Z,91.77
2016-10-08T02:17:35.377Z,91.19
2016-10-08T02:17:49.737Z,91.39
2016-10-08T02:18:04.161Z,91
2016-10-08T02:18:18.600Z,91
2016-10-08T02:18:32.941Z,91.19
2016-10-08T02:18:47.407Z,91.39
2016-10-08T02:19:01.809Z,91.39
2016-10-08T02:19:16.229Z,91.39
2016-10-08T02:19:30.650Z,91.39
2016-10-08T02:19:45.023Z,91.1
2016-10-08T02:19:59.458Z,91.67
2016-10-08T02:20:13.830Z,91.29
2016-10-08T02:20:28.234Z,91.86
2016-10-08T02:20:42.668Z,91.39
2016-10-08T02:20:57.038Z,92.15
2016-10-08T02:21:11.467Z,92.25
2016-10-08T02:21:25.817Z,92.15
2016-10-08T02:21:40.229Z,92.25
2016-10-08T02:21:54.629Z,91.96
2016-10-08T02:22:09.076Z,92.25
2016-10-08T02:22:23.546Z,92.15
2016-10-08T02:22:37.891Z,92.44
2016-10-08T02:22:52.265Z,92.25
2016-10-08T02:23:06.699Z,92.35
2016-10-08T02:23:21.028Z,92.06
2016-10-08T02:23:35.412Z,92.06
2016-10-08T02:23:49.795Z,92.25
2016-10-08T02:24:04.225Z,92.06
2016-10-08T02:24:18.619Z,91.77
2016-10-08T02:24:33.030Z,91.58
2016-10-08T02:24:47.383Z,91.67
2016-10-08T02:25:01.773Z,91.67
2016-10-08T02:25:16.518Z,91.39
2016-10-08T02:25:30.934Z,92.06
2016-10-08T02:25:45.333Z,92.15
2016-10-08T02:25:59.689Z,91.77
2016-10-08T02:26:14.062Z,91.86
2016-10-08T02:26:28.531Z,91.96
2016-10-08T02:26:42.995Z,91.77
2016-10-08T02:26:57.336Z,91.58
2016-10-08T02:27:11.783Z,91.77
2016-10-08T02:27:26.164Z,92.06
2016-10-08T02:27:40.506Z,91.96
2016-10-08T02:28:25.743Z,91.96
2016-10-08T02:28:40.163Z,92.06
2016-10-08T02:28:54.548Z,91.86
2016-10-08T02:29:21.576Z,91.77
2016-10-08T02:29:35.973Z,91.67
2016-10-08T02:29:50.373Z,91.77
2016-10-08T02:30:04.749Z,91.58
2016-10-08T02:30:19.107Z,91.77
2016-10-08T02:30:33.443Z,91.58
2016-10-08T02:30:47.927Z,91.58
2016-10-08T02:31:02.314Z,92.06
2016-10-08T02:31:16.682Z,92.06
2016-10-08T02:31:31.083Z,92.06
2016-10-08T02:31:45.518Z,92.06
2016-10-08T02:31:59.912Z,91.86
2016-10-08T02:32:14.406Z,91.49
2016-10-08T02:32:28.819Z,91.67
2016-10-08T02:32:43.289Z,91.39
2016-10-08T02:32:57.709Z,91.29
2016-10-08T02:33:12.059Z,91.19
2016-10-08T02:33:26.444Z,91.49
2016-10-08T02:33:40.891Z,91.58
2016-10-08T02:33:55.273Z,91.58
2016-10-08T02:34:09.628Z,91.19
2016-10-08T02:34:24.029Z,91.19
2016-10-08T02:34:38.380Z,91.29
2016-10-08T02:34:52.804Z,91.39
2016-10-08T02:35:07.213Z,90.91
2016-10-08T02:35:21.600Z,90.33
2016-10-08T02:35:35.998Z,90.72
2016-10-08T02:35:50.407Z,91.1
2016-10-08T02:36:04.818Z,90.43
2016-10-08T02:36:19.151Z,90.62
2016-10-08T02:36:33.517Z,90.72
2016-10-08T02:36:47.793Z,90.43
2016-10-08T02:37:02.201Z,90.33
2016-10-08T02:37:16.587Z,90.62
2016-10-08T02:37:30.993Z,90.14
2016-10-08T02:37:45.399Z,90.33
2016-10-08T02:37:59.826Z,90.23
2016-10-08T02:38:14.197Z,90.23
2016-10-08T02:38:28.655Z,90.14
2016-10-08T02:38:43.034Z,89.57
2016-10-08T02:38:57.380Z,89.66
2016-10-08T02:39:11.784Z,89.76
2016-10-08T02:39:26.161Z,89.76
2016-10-08T02:39:40.606Z,89.86
2016-10-08T02:39:54.915Z,89.76
2016-10-08T02:40:09.275Z,89.76
2016-10-08T02:40:23.902Z,89.86
2016-10-08T02:40:38.233Z,89.57
2016-10-08T02:40:52.705Z,89.95
2016-10-08T02:41:07.096Z,89.95
2016-10-08T02:41:21.563Z,90.23
2016-10-08T02:41:35.890Z,90.14
2016-10-08T02:41:50.276Z,90.23
2016-10-08T02:42:04.660Z,90.05
2016-10-08T02:42:19.059Z,90.14
2016-10-08T02:42:33.466Z,90.33
2016-10-08T02:42:47.931Z,90.23
2016-10-08T02:43:02.323Z,90.23
2016-10-08T02:43:16.726Z,90.23
2016-10-08T02:43:31.143Z,90.23
2016-10-08T02:43:45.522Z,90.23
2016-10-08T02:43:59.938Z,89.86
2016-10-08T02:44:14.363Z,89.57
2016-10-08T02:44:28.797Z,89.57
2016-10-08T02:44:43.221Z,89.57
2016-10-08T02:44:57.560Z,90.05
2016-10-08T02:45:11.981Z,89.57
2016-10-08T02:45:26.377Z,89.95
2016-10-08T02:45:40.729Z,89.76
2016-10-08T02:45:55.131Z,89.76
2016-10-08T02:46:09.477Z,89.76
2016-10-08T02:46:23.900Z,89.37
2016-10-08T02:46:38.321Z,89.47
2016-10-08T02:46:52.850Z,89.37
2016-10-08T02:47:07.226Z,89.47
2016-10-08T02:47:21.597Z,89.86
2016-10-08T02:47:35.966Z,89.86
2016-10-08T02:47:50.368Z,89.86
2016-10-08T02:48:04.787Z,89.66
2016-10-08T02:48:19.206Z,89.76
2016-10-08T02:48:33.655Z,89.76
2016-10-08T02:48:48.075Z,89.76
2016-10-08T02:49:02.515Z,89.57
2016-10-08T02:49:16.871Z,89.76
2016-10-08T02:49:31.226Z,89.76
2016-10-08T02:49:45.663Z,89.66
2016-10-08T02:50:00.028Z,89.95
2016-10-08T02:50:14.420Z,89.57
2016-10-08T02:50:28.760Z,89.76
2016-10-08T02:50:43.102Z,89.76
2016-10-08T02:50:57.620Z,89.57
2016-10-08T02:51:11.953Z,89.66
2016-10-08T02:51:26.356Z,89.76
2016-10-08T02:51:40.745Z,89.76
2016-10-08T02:51:55.144Z,89.76
2016-10-08T02:52:09.574Z,89.66
2016-10-08T02:52:23.984Z,89.86
2016-10-08T02:52:38.445Z,89.86
2016-10-08T02:52:52.855Z,89.86
2016-10-08T02:53:07.236Z,89.86
2016-10-08T02:53:21.647Z,89.76
2016-10-08T02:53:36.055Z,89.57
2016-10-08T02:53:50.416Z,89.95
2016-10-08T02:54:04.825Z,90.05
2016-10-08T02:54:19.241Z,89.95
2016-10-08T02:54:33.665Z,89.86
2016-10-08T02:54:48.068Z,90.14
2016-10-08T02:55:02.451Z,90.05
2016-10-08T02:55:16.789Z,89.57
2016-10-08T02:55:31.554Z,89.86
2016-10-08T02:55:45.991Z,90.62
2016-10-08T02:56:00.444Z,90.81
2016-10-08T02:56:14.869Z,91.96
2016-10-08T02:56:29.222Z,92.06
2016-10-08T02:56:43.607Z,92.25
2016-10-08T02:56:58.009Z,92.35
2016-10-08T02:57:12.439Z,92.35
2016-10-08T02:57:26.761Z,92.63
2016-10-08T02:57:41.110Z,93.02
2016-10-08T02:57:55.506Z,92.63
2016-10-08T02:58:09.923Z,92.63
2016-10-08T02:58:24.293Z,93.02
2016-10-08T02:58:38.665Z,93.02
2016-10-08T02:58:53.048Z,93.3
2016-10-08T02:59:07.444Z,93.49
2016-10-08T02:59:21.783Z,93.11
2016-10-08T02:59:36.202Z,93.4
2016-10-08T02:59:50.610Z,93.4
2016-10-08T03:00:04.971Z,93.4
2016-10-08T03:00:19.356Z,93.4
2016-10-08T03:00:33.784Z,93.4
2016-10-08T03:00:48.163Z,93.78
2016-10-08T03:01:02.523Z,93.35
2016-10-08T03:01:16.867Z,93.26
2016-10-08T03:01:31.305Z,93.49
2016-10-08T03:01:45.738Z,93.78
2016-10-08T03:02:00.160Z,93.64
2016-10-08T03:02:14.529Z,93.83
2016-10-08T03:02:28.909Z,93.78
2016-10-08T03:02:43.312Z,93.69
2016-10-08T03:02:57.759Z,93.59
2016-10-08T03:03:12.166Z,93.74
2016-10-08T03:03:26.565Z,94.45
2016-10-08T03:03:40.900Z,94.4
2016-10-08T03:03:55.300Z,94.12
2016-10-08T03:04:09.763Z,94.4
2016-10-08T03:04:24.242Z,94.6
2016-10-08T03:04:38.680Z,94.6
2016-10-08T03:04:53.064Z,94.79
2016-10-08T03:05:07.445Z,94.69
2016-10-08T03:05:21.880Z,94.69
2016-10-08T03:05:36.247Z,94.5
2016-10-08T03:05:50.635Z,94.89
2016-10-08T03:06:05.018Z,95.17
2016-10-08T03:06:19.352Z,95.07
2016-10-08T03:06:33.696Z,95.27
2016-10-08T03:06:48.066Z,95.07
2016-10-08T03:07:02.452Z,95.27
2016-10-08T03:07:16.763Z,94.98
2016-10-08T03:07:31.091Z,95.46
2016-10-08T03:07:45.551Z,95.84